createdAt,value
2019-02-05T00:03:35.243Z,78.95
2019-02-05T00:06:03.859Z,79.21
2019-02-05T00:08:32.400Z,79.38
2019-02-05T00:11:01.006Z,79.26
2019-02-05T00:13:29.559Z,79.44
2019-02-05T00:15:58.069Z,79.56
2019-02-05T00:18:27.003Z,79.61
2019-02-05T00:20:55.502Z,79.83
2019-02-05T00:23:24.397Z,79.71
2019-02-05T00:25:53.223Z,80.26
2019-02-05T00:28:21.695Z,80.07
2019-02-05T00:30:50.253Z,80.14
2019-02-05T00:33:18.703Z,80.03
2019-02-05T00:35:47.257Z,80.28
2019-02-05T00:38:16.191Z,79.99
2019-02-05T00:40:46.466Z,79.50
2019-02-05T00:43:14.971Z,79.51
2019-02-05T00:45:43.430Z,79.54
2019-02-05T00:48:11.949Z,79.69
2019-02-05T00:50:40.498Z,79.55
2019-02-05T00:53:09.438Z,79.57
2019-02-05T00:55:38.027Z,80.00
2019-02-05T00:58:06.595Z,79.88
2019-02-05T01:01:15.562Z,79.97
2019-02-05T01:03:45.359Z,79.97
2019-02-05T01:06:13.887Z,79.71
2019-02-05T01:08:42.418Z,79.64
2019-02-05T01:11:10.991Z,79.66
2019-02-05T01:13:39.516Z,79.79
2019-02-05T01:16:08.160Z,79.53
2019-02-05T01:18:38.488Z,79.43
2019-02-05T01:21:07.064Z,79.17
2019-02-05T01:23:35.648Z,79.10
2019-02-05T01:26:04.340Z,79.12
2019-02-05T01:28:32.969Z,78.94
2019-02-05T01:31:01.838Z,79.33
2019-02-05T01:33:32.031Z,78.93
2019-02-05T01:36:00.551Z,79.05
2019-02-05T01:38:29.062Z,78.69
2019-02-05T01:40:57.686Z,78.27
2019-02-05T01:43:26.248Z,78.37
2019-02-05T01:45:54.706Z,78.32
2019-02-05T01:48:23.208Z,78.23
2019-02-05T01:50:51.745Z,78.31
2019-02-05T01:53:20.288Z,78.01
2019-02-05T01:55:48.825Z,77.84
2019-02-05T01:58:17.495Z,77.92
2019-02-05T02:00:46.035Z,77.62
2019-02-05T02:03:14.627Z,77.89
2019-02-05T02:05:43.763Z,78.04
2019-02-05T02:08:52.282Z,77.41
2019-02-05T02:11:20.869Z,77.34
2019-02-05T02:13:49.504Z,77.41
2019-02-05T02:16:18.101Z,77.35
2019-02-05T02:18:46.690Z,77.48
2019-02-05T02:21:15.266Z,77.36
2019-02-05T02:23:43.904Z,77.35
2019-02-05T02:26:12.493Z,77.34
2019-02-05T02:28:42.779Z,77.56
2019-02-05T02:31:11.765Z,77.33
2019-02-05T02:33:40.311Z,77.36
2019-02-05T02:36:08.876Z,77.09
2019-02-05T02:38:37.361Z,77.31
2019-02-05T02:41:05.828Z,77.50
2019-02-05T02:43:36.117Z,77.06
2019-02-05T02:46:44.589Z,77.21
2019-02-05T02:49:13.147Z,76.97
2019-02-05T02:51:41.762Z,76.67
2019-02-05T02:54:10.267Z,77.15
2019-02-05T02:56:38.833Z,77.01
2019-02-05T02:59:07.482Z,76.83
2019-02-05T03:01:36.084Z,76.87
2019-02-05T03:04:04.729Z,76.78
2019-02-05T03:06:33.259Z,76.95
2019-02-05T03:09:01.736Z,76.92
2019-02-05T03:16:54.846Z,76.88
2019-02-05T03:19:25.133Z,76.48
2019-02-05T03:21:53.571Z,76.43
2019-02-05T03:24:22.004Z,76.99
2019-02-05T03:26:50.577Z,76.30
2019-02-05T03:29:19.088Z,76.65
2019-02-05T03:31:47.626Z,76.41
2019-02-05T03:34:16.190Z,76.38
2019-02-05T03:36:45.259Z,76.65
2019-02-05T03:39:13.786Z,76.07
2019-02-05T03:41:42.378Z,76.00
2019-02-05T03:44:10.832Z,76.02
2019-02-05T03:46:39.346Z,75.88
2019-02-05T03:49:07.938Z,76.04
2019-02-05T03:52:16.742Z,76.18
2019-02-05T03:55:23.957Z,76.21
2019-02-05T03:58:32.501Z,75.94
2019-02-05T04:01:40.959Z,76.09
2019-02-05T04:04:49.464Z,75.80
2019-02-05T04:07:57.953Z,75.87
2019-02-05T04:11:06.422Z,75.96
2019-02-05T04:14:13.624Z,76.22
2019-02-05T04:17:22.394Z,76.18
2019-02-05T04:20:29.576Z,76.20
2019-02-05T04:23:38.408Z,76.09
2019-02-05T04:26:45.883Z,76.28
2019-02-05T04:29:54.350Z,76.33
2019-02-05T04:33:01.906Z,76.30
2019-02-05T04:36:09.076Z,75.84
2019-02-05T04:39:17.650Z,76.13
2019-02-05T04:42:24.921Z,77.25
2019-02-05T04:45:34.282Z,79.17
2019-02-05T04:48:43.569Z,81.16
2019-02-05T04:51:32.060Z,82.80
2019-02-05T04:54:41.014Z,83.18
2019-02-05T04:57:56.943Z,83.66
2019-02-05T05:00:57.219Z,84.53
2019-02-05T05:04:05.773Z,85.23
2019-02-05T05:07:12.959Z,85.27
2019-02-05T05:10:21.440Z,85.72
2019-02-05T05:12:49.960Z,86.29
2019-02-05T05:15:58.443Z,85.48
2019-02-05T05:18:26.990Z,85.46
2019-02-05T05:20:55.586Z,85.11
2019-02-05T05:23:24.545Z,85.32
2019-02-05T05:25:53.329Z,84.74
2019-02-05T05:28:21.866Z,84.23
2019-02-05T05:30:52.350Z,84.15
2019-02-05T05:33:20.847Z,84.19
2019-02-05T05:35:49.371Z,83.82
2019-02-05T05:38:17.919Z,83.20
2019-02-05T05:40:46.395Z,83.52
2019-02-05T05:43:14.930Z,82.97
2019-02-05T05:45:43.553Z,82.96
2019-02-05T05:48:13.890Z,82.36
2019-02-05T05:51:46.195Z,81.95
2019-02-05T05:57:08.557Z,81.61
2019-02-05T06:02:57.067Z,81.58
2019-02-05T06:05:25.850Z,81.53
2019-02-05T06:08:43.911Z,81.37
2019-02-05T06:11:12.466Z,81.07
2019-02-05T06:14:21.269Z,79.53
2019-02-05T06:19:59.180Z,80.01
2019-02-05T06:22:27.742Z,79.97
2019-02-05T06:24:56.380Z,79.72
2019-02-05T06:27:24.978Z,79.05
2019-02-05T06:29:53.684Z,79.45
2019-02-05T06:32:22.276Z,79.71
2019-02-05T06:35:30.829Z,79.48
2019-02-05T06:37:59.363Z,79.13
2019-02-05T06:40:28.015Z,79.18
2019-02-05T06:42:56.498Z,78.99
2019-02-05T06:45:25.029Z,78.99
2019-02-05T06:50:48.642Z,78.69
2019-02-05T06:53:17.219Z,78.93
2019-02-05T06:55:45.788Z,79.03
2019-02-05T06:58:14.299Z,78.82
2019-02-05T07:00:42.948Z,78.94
2019-02-05T07:03:11.653Z,79.09
2019-02-05T07:05:40.200Z,79.31
2019-02-05T07:08:08.910Z,78.97
2019-02-05T07:10:37.417Z,79.09
2019-02-05T07:13:06.329Z,79.08
2019-02-05T07:15:34.804Z,78.96
2019-02-05T07:18:03.512Z,78.40
2019-02-05T07:20:33.899Z,78.42
2019-02-05T07:23:02.459Z,78.42
2019-02-05T07:25:31.380Z,78.08
2019-02-05T07:28:00.311Z,78.25
2019-02-05T07:30:28.943Z,78.30
2019-02-05T07:32:57.901Z,78.38
2019-02-05T07:35:26.519Z,78.32
2019-02-05T07:37:56.896Z,78.29
2019-02-05T07:40:25.576Z,78.44
2019-02-05T07:42:54.071Z,78.37
2019-02-05T07:46:02.642Z,78.33
2019-02-05T07:48:33.007Z,78.43
2019-02-05T07:51:01.536Z,78.48
2019-02-05T07:53:33.084Z,78.01
2019-02-05T07:56:00.460Z,78.17
2019-02-05T08:01:37.370Z,78.29
2019-02-05T08:04:06.008Z,78.16
2019-02-05T08:06:34.630Z,78.31
2019-02-05T08:11:41.244Z,77.97
2019-02-05T08:14:09.456Z,78.34
2019-02-05T08:16:37.917Z,78.18
2019-02-05T08:19:06.891Z,78.07
2019-02-05T08:21:35.541Z,78.60
2019-02-05T08:26:58.785Z,77.99
2019-02-05T08:29:27.974Z,77.91
2019-02-05T08:31:56.475Z,77.82
2019-02-05T08:34:25.086Z,77.61
2019-02-05T08:36:53.657Z,77.63
2019-02-05T08:39:22.347Z,77.72
2019-02-05T08:41:50.859Z,77.95
2019-02-05T08:44:19.400Z,77.48
2019-02-05T08:46:47.992Z,77.55
2019-02-05T08:49:16.578Z,76.83
2019-02-05T08:51:45.203Z,76.55
2019-02-05T08:54:13.807Z,76.54
2019-02-05T08:56:42.449Z,76.38
2019-02-05T08:59:11.100Z,76.48
2019-02-05T09:01:39.819Z,75.58
2019-02-05T09:04:08.363Z,75.75
2019-02-05T09:06:37.045Z,75.95
2019-02-05T09:09:45.494Z,76.20
2019-02-05T09:12:14.257Z,76.21
2019-02-05T09:14:42.742Z,75.73
2019-02-05T09:17:51.247Z,75.08
2019-02-05T09:20:39.163Z,75.61
2019-02-05T09:23:07.839Z,75.90
2019-02-05T09:25:36.378Z,75.89
2019-02-05T09:28:05.219Z,75.85
2019-02-05T09:33:44.610Z,75.52
2019-02-05T09:36:13.197Z,75.39
2019-02-05T09:38:41.951Z,76.03
2019-02-05T09:41:10.635Z,75.29
2019-02-05T09:43:39.674Z,74.90
2019-02-05T09:46:08.669Z,75.32
2019-02-05T09:48:37.233Z,75.32
2019-02-05T09:51:05.848Z,75.47
2019-02-05T09:53:34.389Z,75.71
2019-02-05T09:56:04.800Z,75.49
2019-02-05T09:58:33.360Z,75.35
2019-02-05T10:03:58.653Z,75.96
2019-02-05T10:06:29.094Z,76.00
2019-02-05T10:08:57.603Z,76.31
2019-02-05T10:11:26.120Z,76.56
2019-02-05T10:13:54.675Z,76.17
2019-02-05T10:16:23.335Z,76.33
2019-02-05T10:18:52.218Z,76.75
2019-02-05T10:21:20.873Z,76.82
2019-02-05T10:23:51.189Z,76.94
2019-02-05T10:26:19.819Z,76.92
2019-02-05T10:28:48.317Z,77.06
2019-02-05T10:31:16.897Z,77.23
2019-02-05T10:33:54.915Z,76.74
2019-02-05T10:36:16.089Z,76.80
2019-02-05T10:38:44.691Z,77.22
2019-02-05T10:41:13.544Z,76.49
2019-02-05T10:43:42.140Z,76.73
2019-02-05T10:46:10.781Z,77.14
2019-02-05T10:48:39.404Z,77.41
2019-02-05T10:51:07.972Z,77.20
2019-02-05T10:53:36.616Z,77.33
2019-02-05T10:56:05.465Z,77.39
2019-02-05T10:58:34.195Z,77.64
2019-02-05T11:01:02.830Z,77.87
2019-02-05T11:03:31.440Z,78.01
2019-02-05T11:06:00.108Z,78.21
2019-02-05T11:08:28.743Z,78.15
2019-02-05T11:10:57.275Z,77.90
2019-02-05T11:13:25.833Z,78.05
2019-02-05T11:22:32.215Z,78.35
2019-02-05T11:25:00.763Z,78.71
2019-02-05T11:27:31.058Z,78.63
2019-02-05T11:29:59.613Z,78.54
2019-02-05T11:32:28.146Z,78.68
2019-02-05T11:34:56.708Z,78.58
2019-02-05T11:37:25.355Z,78.47
2019-02-05T11:39:53.954Z,78.59
2019-02-05T11:42:22.522Z,78.72
2019-02-05T11:44:51.058Z,78.91
2019-02-05T11:47:20.002Z,79.13
2019-02-05T11:49:48.557Z,79.06
2019-02-05T11:52:17.124Z,79.13
2019-02-05T11:54:45.691Z,79.21
2019-02-05T11:57:14.334Z,79.39
2019-02-05T11:59:43.329Z,79.04
2019-02-05T12:02:12.524Z,78.92
2019-02-05T12:04:41.117Z,79.18
2019-02-05T12:07:09.819Z,79.05
2019-02-05T12:09:38.506Z,79.14
2019-02-05T12:12:07.052Z,79.20
2019-02-05T12:14:35.644Z,79.38
2019-02-05T12:19:59.246Z,79.83
2019-02-05T12:22:28.079Z,79.83
2019-02-05T12:27:51.445Z,80.05
2019-02-05T12:31:00.226Z,79.98
2019-02-05T12:33:30.629Z,79.52
2019-02-05T12:36:39.462Z,79.89
2019-02-05T12:39:48.255Z,80.02
2019-02-05T12:42:16.921Z,79.98
2019-02-05T12:44:45.543Z,79.90
2019-02-05T12:47:14.406Z,79.83
2019-02-05T12:49:43.041Z,79.76
2019-02-05T12:52:24.503Z,79.72
2019-02-05T12:54:42.537Z,79.81
2019-02-05T12:57:11.201Z,79.80
2019-02-05T12:59:39.826Z,79.58
2019-02-05T13:02:48.328Z,79.52
2019-02-05T13:08:47.491Z,79.64
2019-02-05T13:11:16.054Z,79.85
2019-02-05T13:13:46.743Z,80.06
2019-02-05T13:16:15.363Z,79.85
2019-02-05T13:18:43.865Z,79.88
2019-02-05T13:21:12.503Z,80.37
2019-02-05T13:23:41.540Z,80.09
2019-02-05T13:26:50.123Z,80.41
2019-02-05T13:29:18.805Z,80.33
2019-02-05T13:31:47.424Z,80.66
2019-02-05T13:34:16.162Z,80.67
2019-02-05T13:37:04.587Z,80.96
2019-02-05T13:39:33.250Z,80.68
2019-02-05T13:42:03.356Z,81.13
2019-02-05T13:45:11.684Z,81.22
2019-02-05T13:47:40.988Z,81.51
2019-02-05T13:50:49.499Z,81.47
2019-02-05T13:53:18.074Z,81.57
2019-02-05T13:56:26.646Z,81.41
2019-02-05T13:58:55.264Z,81.65
2019-02-05T14:01:23.863Z,81.91
2019-02-05T14:03:52.744Z,82.07
2019-02-05T14:06:21.401Z,82.22
2019-02-05T14:08:51.881Z,82.24
2019-02-05T14:11:20.449Z,82.42
2019-02-05T14:13:49.302Z,82.20
2019-02-05T14:16:18.039Z,82.43
2019-02-05T14:19:09.671Z,82.48
2019-02-05T14:21:38.492Z,82.70
2019-02-05T14:24:07.129Z,82.83
2019-02-05T14:26:35.706Z,82.74
2019-02-05T14:29:04.397Z,82.86
2019-02-05T14:31:33.283Z,82.72
2019-02-05T14:34:01.934Z,82.89
2019-02-05T14:36:32.132Z,82.60
2019-02-05T14:39:00.782Z,82.62
2019-02-05T14:41:29.320Z,82.61
2019-02-05T14:43:57.873Z,82.57
2019-02-05T14:46:26.539Z,82.66
2019-02-05T14:48:55.446Z,82.89
2019-02-05T14:51:25.697Z,82.85
2019-02-05T14:53:54.319Z,83.05
2019-02-05T14:56:23.298Z,83.05
2019-02-05T14:58:52.152Z,83.03
2019-02-05T15:01:20.954Z,83.13
2019-02-05T15:03:49.649Z,83.54
2019-02-05T15:06:18.387Z,83.42
2019-02-05T15:08:47.070Z,83.36
2019-02-05T15:11:15.723Z,83.31
2019-02-05T15:13:44.307Z,83.59
2019-02-05T15:16:12.844Z,83.72
2019-02-05T15:18:41.419Z,83.72
2019-02-05T15:23:45.064Z,83.97
2019-02-05T15:26:13.767Z,83.91
2019-02-05T15:28:42.428Z,84.16
2019-02-05T15:31:11.202Z,84.09
2019-02-05T15:36:31.343Z,84.30
2019-02-05T15:38:59.498Z,83.60
2019-02-05T15:44:23.259Z,84.04
2019-02-05T15:46:51.877Z,84.05
2019-02-05T15:49:20.524Z,84.03
2019-02-05T15:51:49.656Z,84.25
2019-02-05T15:54:18.352Z,84.69
2019-02-05T15:56:48.691Z,84.81
2019-02-05T15:59:17.427Z,84.74
2019-02-05T16:01:46.159Z,84.62
2019-02-05T16:04:15.062Z,84.93
2019-02-05T16:06:44.133Z,85.02
2019-02-05T16:09:52.837Z,85.05
2019-02-05T16:12:21.481Z,84.48
2019-02-05T16:14:50.443Z,84.32
2019-02-05T16:17:19.060Z,84.54
2019-02-05T16:19:48.169Z,84.36
2019-02-05T16:22:16.934Z,84.59
2019-02-05T16:24:45.732Z,84.76
2019-02-05T16:27:14.695Z,84.89
2019-02-05T16:29:43.218Z,84.97
2019-02-05T16:32:17.726Z,85.18
2019-02-05T16:34:42.018Z,85.35
2019-02-05T16:37:12.372Z,85.00
2019-02-05T16:39:41.292Z,85.08
2019-02-05T16:42:09.914Z,85.18
2019-02-05T16:44:38.497Z,85.13
2019-02-05T16:47:07.273Z,85.13
2019-02-05T16:49:35.895Z,85.16
2019-02-05T16:52:06.246Z,85.08
2019-02-05T16:54:35.259Z,84.83
2019-02-05T16:57:03.928Z,84.83
2019-02-05T16:59:32.598Z,85.19
2019-02-05T17:02:01.384Z,84.94
2019-02-05T17:04:30.629Z,85.17
2019-02-05T17:07:01.026Z,85.07
2019-02-05T17:09:29.873Z,85.30
2019-02-05T17:11:58.648Z,85.14
2019-02-05T17:14:27.314Z,85.20
2019-02-05T17:16:55.792Z,85.06
2019-02-05T17:19:24.528Z,85.17
2019-02-05T17:21:53.200Z,84.64
2019-02-05T17:24:21.843Z,84.83
2019-02-05T17:26:50.446Z,84.31
2019-02-05T17:29:19.021Z,84.03
2019-02-05T17:31:47.679Z,84.30
2019-02-05T17:34:16.414Z,84.51
2019-02-05T17:36:45.402Z,84.21
2019-02-05T17:39:14.389Z,84.42
2019-02-05T17:41:43.030Z,84.38
2019-02-05T17:44:11.624Z,84.33
2019-02-05T17:46:40.148Z,84.61
2019-02-05T17:49:08.718Z,84.42
2019-02-05T17:51:37.620Z,84.48
2019-02-05T17:54:07.996Z,84.56
2019-02-05T17:56:36.638Z,84.42
2019-02-05T17:59:05.216Z,84.21
2019-02-05T18:01:33.831Z,84.29
2019-02-05T18:04:02.658Z,84.20
2019-02-05T18:06:31.273Z,84.59
2019-02-05T18:08:59.880Z,84.20
2019-02-05T18:11:28.368Z,84.27
2019-02-05T18:13:57.074Z,84.37
2019-02-05T18:16:25.724Z,84.50
2019-02-05T18:18:54.412Z,84.61
2019-02-05T18:21:22.975Z,84.68
2019-02-05T18:23:51.581Z,84.80
2019-02-05T18:26:21.991Z,84.48
2019-02-05T18:28:50.673Z,84.67
2019-02-05T18:31:19.342Z,84.76
2019-02-05T18:33:47.922Z,84.90
2019-02-05T18:36:17.036Z,84.87
2019-02-05T18:41:53.828Z,84.37
2019-02-05T18:44:22.397Z,84.47
2019-02-05T18:46:50.987Z,84.35
2019-02-05T18:49:19.734Z,84.31
2019-02-05T18:51:48.319Z,84.21
2019-02-05T18:54:17.008Z,84.29
2019-02-05T18:56:46.119Z,84.28
2019-02-05T18:59:14.968Z,84.39
2019-02-05T19:04:41.141Z,84.22
2019-02-05T19:07:09.790Z,84.08
2019-02-05T19:09:38.518Z,84.13
2019-02-05T19:12:07.401Z,83.87
2019-02-05T19:14:37.707Z,83.81
2019-02-05T19:17:06.397Z,83.91
2019-02-05T19:19:35.287Z,83.81
2019-02-05T19:22:04.096Z,83.87
2019-02-05T19:27:21.921Z,83.68
2019-02-05T19:29:50.612Z,83.84
2019-02-05T19:37:29.815Z,83.80
2019-02-05T19:39:58.445Z,83.76
2019-02-05T19:42:27.169Z,83.77
2019-02-05T19:47:31.235Z,83.50
2019-02-05T19:49:59.925Z,83.70
2019-02-05T19:52:30.313Z,83.89
2019-02-05T19:54:58.969Z,83.42
2019-02-05T19:57:27.553Z,83.45
2019-02-05T20:00:03.862Z,83.48
2019-02-05T20:02:32.403Z,83.60
2019-02-05T20:05:01.069Z,83.53
2019-02-05T20:07:29.714Z,83.24
2019-02-05T20:09:58.371Z,83.13
2019-02-05T20:12:28.629Z,83.01
2019-02-05T20:14:57.190Z,83.25
2019-02-05T20:17:25.972Z,83.17
2019-02-05T20:19:55.121Z,83.30
2019-02-05T20:22:24.217Z,83.34
2019-02-05T20:24:52.857Z,83.51
2019-02-05T20:27:21.489Z,83.46
2019-02-05T20:32:21.477Z,83.28
2019-02-05T20:34:50.295Z,83.46
2019-02-05T20:37:18.879Z,83.58
2019-02-05T20:39:47.457Z,83.37
2019-02-05T20:42:16.555Z,82.99
2019-02-05T20:44:45.512Z,82.97
2019-02-05T20:47:14.115Z,82.98
2019-02-05T20:49:42.718Z,83.01
2019-02-05T20:52:11.346Z,83.18
2019-02-05T20:54:40.125Z,82.91
2019-02-05T20:57:08.715Z,83.11
2019-02-05T20:59:37.398Z,83.15
2019-02-05T21:02:05.977Z,82.76
2019-02-05T21:04:35.605Z,82.59
2019-02-05T21:07:05.222Z,82.74
2019-02-05T21:09:33.786Z,82.71
2019-02-05T21:12:02.355Z,82.94
2019-02-05T21:14:31.016Z,82.75
2019-02-05T21:16:59.620Z,82.58
2019-02-05T21:19:30.027Z,82.57
2019-02-05T21:21:58.723Z,82.79
2019-02-05T21:24:27.280Z,82.82
2019-02-05T21:26:55.856Z,82.33
2019-02-05T21:29:24.445Z,82.58
2019-02-05T21:31:53.007Z,82.73
2019-02-05T21:34:21.675Z,82.62
2019-02-05T21:36:51.967Z,82.79
2019-02-05T21:39:20.629Z,82.66
2019-02-05T21:41:49.354Z,82.59
2019-02-05T21:44:18.154Z,82.84
2019-02-05T21:46:46.725Z,82.71
2019-02-05T21:49:15.623Z,82.55
2019-02-05T21:51:44.220Z,82.59
2019-02-05T21:54:12.827Z,82.58
2019-02-05T21:56:41.564Z,82.64
2019-02-05T21:59:10.231Z,82.15
2019-02-05T22:01:38.787Z,82.39
2019-02-05T22:04:10.077Z,82.38
2019-02-05T22:06:37.874Z,82.40
2019-02-05T22:09:46.558Z,82.45
2019-02-05T22:18:20.552Z,82.13
2019-02-05T22:20:49.135Z,81.88
2019-02-05T22:23:18.130Z,81.74
2019-02-05T22:25:46.703Z,82.06
2019-02-05T22:28:15.347Z,81.69
2019-02-05T22:30:45.617Z,81.66
2019-02-05T22:33:14.160Z,81.48
2019-02-05T22:35:42.676Z,81.56
2019-02-05T22:38:11.236Z,81.51
2019-02-05T22:40:39.922Z,81.29
2019-02-05T22:43:10.194Z,81.32
2019-02-05T22:45:41.167Z,81.14
2019-02-05T22:48:09.910Z,81.32
2019-02-05T22:51:18.414Z,81.66
2019-02-05T22:53:46.914Z,81.35
2019-02-05T22:56:15.493Z,81.30
2019-02-05T22:58:45.727Z,81.46
2019-02-05T23:01:54.282Z,81.70
2019-02-05T23:05:02.729Z,81.65
2019-02-05T23:07:31.482Z,81.25
2019-02-05T23:10:39.921Z,81.15
2019-02-05T23:13:08.607Z,81.28
2019-02-05T23:16:17.102Z,81.07
2019-02-05T23:18:45.754Z,81.24
2019-02-05T23:21:14.314Z,81.53
2019-02-05T23:23:42.872Z,81.21
2019-02-05T23:26:11.394Z,80.94
2019-02-05T23:28:39.970Z,80.88
2019-02-05T23:31:08.428Z,81.21
2019-02-05T23:33:36.898Z,80.96
2019-02-05T23:36:05.444Z,80.87
2019-02-05T23:38:34.235Z,81.19
2019-02-05T23:41:03.237Z,80.38
2019-02-05T23:43:46.197Z,80.54
2019-02-05T23:46:02.361Z,80.70
2019-02-05T23:48:30.933Z,80.20
2019-02-05T23:50:59.948Z,80.25
2019-02-05T23:53:28.572Z,80.71
2019-02-05T23:55:57.129Z,80.73
2019-02-05T23:58:27.383Z,80.52
